createdAt,value
2022-08-09T00:00:59.648Z,100883.41
2022-08-09T00:04:03.691Z,100884.06
2022-08-09T00:06:22.936Z,100882.34
2022-08-09T00:08:53.289Z,100884.19
2022-08-09T00:11:58.457Z,100884.28
2022-08-09T00:14:17.461Z,100876.59
2022-08-09T00:16:50.742Z,100874.16
2022-08-09T00:19:20.571Z,100872.31
2022-08-09T00:21:55.850Z,100876.00
2022-08-09T00:24:27.242Z,100872.69
2022-08-09T00:26:57.349Z,100868.03
2022-08-09T00:30:10.336Z,100860.25
2022-08-09T00:32:35.931Z,100860.72
2022-08-09T00:35:07.463Z,100860.97
2022-08-09T00:37:35.966Z,100859.25
2022-08-09T00:40:13.865Z,100855.97
2022-08-09T00:44:11.381Z,100855.97
2022-08-09T00:45:35.123Z,100853.19
2022-08-09T00:48:04.431Z,100858.09
2022-08-09T00:50:37.761Z,100865.47
2022-08-09T00:53:10.308Z,100872.56
2022-08-09T00:56:03.700Z,100862.28
2022-08-09T00:58:28.015Z,100855.22
2022-08-09T01:01:00.061Z,100862.41
2022-08-09T01:03:45.506Z,100863.69
2022-08-09T01:06:53.414Z,100868.41
2022-08-09T01:09:36.622Z,100860.34
2022-08-09T01:12:16.502Z,100864.13
2022-08-09T01:14:57.080Z,100859.38
2022-08-09T01:17:34.668Z,100860.06
2022-08-09T01:20:07.248Z,100852.84
2022-08-09T01:23:05.569Z,100859.94
2022-08-09T01:26:03.773Z,100858.31
2022-08-09T01:28:34.828Z,100863.50
2022-08-09T01:31:07.293Z,100855.94
2022-08-09T01:33:39.787Z,100860.69
2022-08-09T01:36:13.528Z,100859.72
2022-08-09T01:38:47.041Z,100860.69
2022-08-09T01:41:18.469Z,100861.31
2022-08-09T01:43:59.091Z,100852.97
2022-08-09T01:46:32.456Z,100843.78
2022-08-09T01:49:10.271Z,100854.84
2022-08-09T01:51:54.322Z,100850.88
2022-08-09T01:54:30.216Z,100852.28
2022-08-09T01:57:08.522Z,100851.59
2022-08-09T01:59:51.616Z,100847.59
2022-08-09T02:02:29.900Z,100853.44
2022-08-09T02:05:11.871Z,100848.25
2022-08-09T02:08:41.015Z,100856.81
2022-08-09T02:10:42.790Z,100848.31
2022-08-09T02:13:25.857Z,100855.94
2022-08-09T02:16:07.407Z,100856.16
2022-08-09T02:18:43.079Z,100859.91
2022-08-09T02:21:22.281Z,100860.38
2022-08-09T02:23:56.558Z,100861.13
2022-08-09T02:26:27.700Z,100855.63
2022-08-09T02:29:00.796Z,100865.59
2022-08-09T02:31:35.684Z,100873.69
2022-08-09T02:34:13.637Z,100864.31
2022-08-09T02:36:57.079Z,100865.09
2022-08-09T02:39:40.024Z,100860.78
2022-08-09T02:42:17.262Z,100864.78
2022-08-09T02:44:50.477Z,100865.09
2022-08-09T02:47:23.043Z,100863.84
2022-08-09T02:50:01.860Z,100861.38
2022-08-09T02:52:38.628Z,100860.75
2022-08-09T02:55:20.821Z,100853.97
2022-08-09T02:58:00.320Z,100858.78
2022-08-09T03:00:58.069Z,100857.81
2022-08-09T03:03:59.597Z,100854.34
2022-08-09T03:06:21.533Z,100860.31
2022-08-09T03:08:53.009Z,100854.94
2022-08-09T03:11:29.917Z,100857.28
2022-08-09T03:14:14.102Z,100853.34
2022-08-09T03:16:48.100Z,100861.59
2022-08-09T03:19:52.712Z,100864.34
2022-08-09T03:22:12.522Z,100868.16
2022-08-09T03:24:52.684Z,100869.22
2022-08-09T03:27:45.015Z,100861.25
2022-08-09T03:30:29.176Z,100861.84
2022-08-09T03:33:05.702Z,100868.69
2022-08-09T03:36:13.235Z,100861.81
2022-08-09T03:38:32.809Z,100870.91
2022-08-09T03:41:01.340Z,100873.66
2022-08-09T03:43:32.176Z,100872.34
2022-08-09T03:46:04.314Z,100879.81
2022-08-09T03:48:55.253Z,100884.09
2022-08-09T03:51:56.962Z,100883.56
2022-08-09T03:54:17.043Z,100882.19
2022-08-09T03:56:46.579Z,100897.63
2022-08-09T03:59:21.085Z,100887.94
2022-08-09T04:01:59.174Z,100893.00
2022-08-09T04:04:36.146Z,100894.44
2022-08-09T04:07:09.005Z,100897.19
2022-08-09T04:09:44.455Z,100889.28
2022-08-09T04:12:44.600Z,100899.38
2022-08-09T04:15:17.282Z,100899.88
2022-08-09T04:18:03.120Z,100902.66
2022-08-09T04:20:31.584Z,100898.94
2022-08-09T04:23:02.597Z,100905.66
2022-08-09T04:25:38.408Z,100903.56
2022-08-09T04:28:07.663Z,100902.38
2022-08-09T04:30:36.119Z,100900.34
2022-08-09T04:33:04.577Z,100901.25
2022-08-09T04:35:33.179Z,100912.00
2022-08-09T04:38:03.662Z,100911.94
2022-08-09T04:40:46.230Z,100908.91
2022-08-09T04:43:15.276Z,100915.28
2022-08-09T04:45:53.968Z,100921.47
2022-08-09T04:48:23.874Z,100927.47
2022-08-09T04:51:02.045Z,100929.19
2022-08-09T04:53:31.801Z,100922.00
2022-08-09T04:56:00.697Z,100941.19
2022-08-09T04:58:31.654Z,100934.78
2022-08-09T05:01:02.039Z,100937.63
2022-08-09T05:03:42.901Z,100939.44
2022-08-09T05:06:21.749Z,100944.28
2022-08-09T05:09:00.422Z,100949.69
2022-08-09T05:11:32.488Z,100954.03
2022-08-09T05:14:05.774Z,100954.34
2022-08-09T05:16:58.411Z,100955.16
2022-08-09T05:19:26.066Z,100958.88
2022-08-09T05:22:00.309Z,100950.75
2022-08-09T05:24:30.119Z,100956.38
2022-08-09T05:26:58.738Z,100957.81
2022-08-09T05:29:31.189Z,100955.44
2022-08-09T05:32:01.229Z,100956.47
2022-08-09T05:34:32.579Z,100958.78
2022-08-09T05:37:06.103Z,100953.03
2022-08-09T05:39:42.624Z,100962.69
2022-08-09T05:42:17.211Z,100968.69
2022-08-09T05:44:51.675Z,100970.22
2022-08-09T05:47:21.451Z,100970.72
2022-08-09T05:50:25.765Z,100965.66
2022-08-09T05:52:40.510Z,100964.31
2022-08-09T05:55:20.526Z,100971.09
2022-08-09T05:57:55.525Z,100971.78
2022-08-09T06:00:25.564Z,100975.09
2022-08-09T06:02:57.252Z,100983.66
2022-08-09T06:05:50.179Z,100987.72
2022-08-09T06:08:19.712Z,100994.97
2022-08-09T06:10:56.095Z,100996.53
2022-08-09T06:13:28.658Z,100993.66
2022-08-09T06:16:04.965Z,101001.38
2022-08-09T06:18:34.731Z,100999.25
2022-08-09T06:21:04.465Z,101006.50
2022-08-09T06:23:58.383Z,100999.03
2022-08-09T06:26:28.482Z,101001.53
2022-08-09T06:28:59.559Z,100998.22
2022-08-09T06:31:31.254Z,100999.22
2022-08-09T06:34:00.240Z,100998.88
2022-08-09T06:36:29.724Z,101001.19
2022-08-09T06:38:58.593Z,101008.78
2022-08-09T06:42:07.821Z,101010.75
2022-08-09T06:44:21.469Z,101010.75
2022-08-09T06:46:55.318Z,101018.78
2022-08-09T06:49:44.573Z,101017.25
2022-08-09T06:52:16.298Z,101017.38
2022-08-09T06:54:45.406Z,101017.13
2022-08-09T06:57:15.317Z,101022.69
2022-08-09T07:00:48.978Z,101024.09
2022-08-09T07:02:32.483Z,101014.53
2022-08-09T07:05:01.950Z,101009.56
2022-08-09T07:08:01.008Z,101019.47
2022-08-09T07:10:29.522Z,101024.81
2022-08-09T07:12:59.940Z,101024.59
2022-08-09T07:16:38.680Z,101019.75
2022-08-09T07:18:17.226Z,101021.47
2022-08-09T07:20:47.860Z,101024.00
2022-08-09T07:23:18.727Z,101026.19
2022-08-09T07:25:52.134Z,101025.06
2022-08-09T07:28:34.651Z,101027.31
2022-08-09T07:31:05.342Z,101025.50
2022-08-09T07:33:52.785Z,101023.13
2022-08-09T07:36:23.038Z,101031.09
2022-08-09T07:39:00.389Z,101028.78
2022-08-09T07:41:32.951Z,101029.25
2022-08-09T07:44:08.391Z,101034.78
2022-08-09T07:46:40.360Z,101034.97
2022-08-09T07:49:15.372Z,101016.59
2022-08-09T07:52:04.353Z,101024.53
2022-08-09T07:54:32.538Z,101024.97
2022-08-09T07:57:00.986Z,101029.09
2022-08-09T07:59:45.947Z,101032.34
2022-08-09T08:02:24.689Z,101022.66
2022-08-09T08:04:54.913Z,101033.72
2022-08-09T08:08:44.013Z,101033.28
2022-08-09T08:10:12.104Z,101032.97
2022-08-09T08:12:45.126Z,101031.31
2022-08-09T08:15:18.643Z,101032.72
2022-08-09T08:17:58.460Z,101028.84
2022-08-09T08:20:33.034Z,101030.97
2022-08-09T08:23:16.200Z,101021.88
2022-08-09T08:25:50.502Z,101025.06
2022-08-09T08:28:31.964Z,101025.50
2022-08-09T08:31:13.947Z,101026.91
2022-08-09T08:33:53.975Z,101023.97
2022-08-09T08:36:28.713Z,101024.81
2022-08-09T08:38:58.748Z,101023.09
2022-08-09T08:41:42.036Z,101024.81
2022-08-09T08:44:27.211Z,101021.72
2022-08-09T08:47:05.233Z,101026.94
2022-08-09T08:49:48.419Z,101036.22
2022-08-09T08:55:19.173Z,101028.56
2022-08-09T08:57:56.759Z,101029.75
2022-08-09T09:00:30.400Z,101021.69
2022-08-09T09:03:11.511Z,101022.28
2022-08-09T09:06:01.198Z,101022.44
2022-08-09T09:08:40.180Z,101023.78
2022-08-09T09:11:13.692Z,101020.75
2022-08-09T09:13:56.469Z,101022.81
2022-08-09T09:16:31.874Z,101021.31
2022-08-09T09:22:34.400Z,101031.22
2022-08-09T09:26:04.363Z,101026.63
2022-08-09T09:28:06.184Z,101021.91
2022-08-09T09:30:54.023Z,101021.06
2022-08-09T09:33:23.790Z,101013.75
2022-08-09T09:36:02.072Z,101018.28
2022-08-09T09:38:47.247Z,101014.78
2022-08-09T09:41:33.198Z,101016.31
2022-08-09T09:44:13.445Z,101018.88
2022-08-09T09:46:58.759Z,101020.03
2022-08-09T09:49:50.044Z,101015.78
2022-08-09T09:52:36.945Z,101013.22
2022-08-09T09:55:24.191Z,101011.75
2022-08-09T09:58:00.640Z,101013.50
2022-08-09T10:00:33.705Z,101006.81
2022-08-09T10:03:09.364Z,101006.56
2022-08-09T10:06:04.691Z,101000.75
2022-08-09T10:08:54.280Z,101012.88
2022-08-09T10:12:12.434Z,101007.16
2022-08-09T10:14:30.353Z,101002.50
2022-08-09T10:17:39.971Z,101002.94
2022-08-09T10:19:52.956Z,100996.59
2022-08-09T10:22:33.489Z,100997.34
2022-08-09T10:25:12.293Z,100990.69
2022-08-09T10:27:45.079Z,100997.72
2022-08-09T10:33:44.804Z,100982.53
2022-08-09T10:36:04.392Z,100988.22
2022-08-09T10:38:54.405Z,100987.13
2022-08-09T10:41:23.285Z,100989.75
2022-08-09T10:43:59.260Z,100986.03
2022-08-09T10:46:57.589Z,100975.69
2022-08-09T10:49:51.035Z,100978.28
2022-08-09T10:52:44.758Z,100987.13
2022-08-09T10:55:24.967Z,100978.50
2022-08-09T10:58:00.220Z,100974.31
2022-08-09T11:00:51.023Z,100972.75
2022-08-09T11:03:50.042Z,100965.81
2022-08-09T11:06:22.906Z,100972.16
2022-08-09T11:08:53.868Z,100975.41
2022-08-09T11:11:24.122Z,100958.50
2022-08-09T11:14:32.211Z,100956.22
2022-08-09T11:17:01.038Z,100959.28
2022-08-09T11:20:10.126Z,100947.81
2022-08-09T11:23:02.997Z,100948.84
2022-08-09T11:25:49.460Z,100955.78
2022-08-09T11:28:56.745Z,100956.31
2022-08-09T11:31:52.654Z,100968.97
2022-08-09T11:34:33.533Z,100954.81
2022-08-09T11:37:07.455Z,100959.16
2022-08-09T11:40:04.835Z,100950.94
2022-08-09T11:42:46.972Z,100958.69
2022-08-09T11:45:42.431Z,100948.03
2022-08-09T11:48:27.025Z,100952.91
2022-08-09T11:52:56.660Z,100945.59
2022-08-09T11:54:27.554Z,100948.59
2022-08-09T11:57:47.865Z,100937.34
2022-08-09T12:00:31.187Z,100937.47
2022-08-09T12:03:09.903Z,100939.66
2022-08-09T12:05:54.516Z,100943.59
2022-08-09T12:08:25.237Z,100944.13
2022-08-09T12:10:57.554Z,100945.03
2022-08-09T12:14:07.803Z,100937.72
2022-08-09T12:16:37.733Z,100933.81
2022-08-09T12:19:09.560Z,100934.31
2022-08-09T12:21:50.796Z,100933.22
2022-08-09T12:24:25.757Z,100927.50
2022-08-09T12:29:11.582Z,100930.16
2022-08-09T12:30:01.921Z,100919.56
2022-08-09T12:32:48.442Z,100927.13
2022-08-09T12:35:21.753Z,100917.00
2022-08-09T12:37:53.737Z,100909.84
2022-08-09T12:40:26.888Z,100912.44
2022-08-09T12:42:57.594Z,100910.75
2022-08-09T12:45:33.643Z,100917.91
2022-08-09T12:48:20.035Z,100906.59
2022-08-09T12:50:59.345Z,100904.44
2022-08-09T12:53:36.995Z,100892.53
2022-08-09T12:56:34.852Z,100901.25
2022-08-09T12:59:11.908Z,100904.53
2022-08-09T13:01:48.896Z,100903.06
2022-08-09T13:04:37.017Z,100901.47
2022-08-09T13:07:16.530Z,100898.31
2022-08-09T13:09:55.052Z,100896.25
2022-08-09T13:12:29.284Z,100885.19
2022-08-09T13:15:07.129Z,100893.94
2022-08-09T13:18:03.264Z,100895.44
2022-08-09T13:20:36.978Z,100898.44
2022-08-09T13:24:16.312Z,100899.03
2022-08-09T13:25:56.429Z,100892.25
2022-08-09T13:28:35.435Z,100887.28
2022-08-09T13:32:13.653Z,100881.38
2022-08-09T13:33:59.338Z,100879.75
2022-08-09T13:36:42.424Z,100880.47
2022-08-09T13:41:50.735Z,100879.41
2022-08-09T13:42:04.585Z,100878.75
2022-08-09T13:44:34.811Z,100883.72
2022-08-09T13:47:27.452Z,100872.00
2022-08-09T13:49:55.997Z,100867.94
2022-08-09T13:52:26.603Z,100871.09
2022-08-09T13:55:00.571Z,100860.41
2022-08-09T13:57:39.709Z,100860.78
2022-08-09T14:00:15.532Z,100862.09
2022-08-09T14:03:03.042Z,100855.66
2022-08-09T14:05:57.086Z,100854.69
2022-08-09T14:08:26.866Z,100856.50
2022-08-09T14:10:55.952Z,100858.94
2022-08-09T14:14:15.175Z,100857.25
2022-08-09T14:16:17.176Z,100853.72
2022-08-09T14:18:51.591Z,100852.41
2022-08-09T14:21:22.703Z,100852.63
2022-08-09T14:23:57.303Z,100858.47
2022-08-09T14:26:32.773Z,100854.03
2022-08-09T14:29:08.342Z,100850.22
2022-08-09T14:31:56.207Z,100844.72
2022-08-09T14:34:31.892Z,100853.84
2022-08-09T14:37:06.791Z,100847.03
2022-08-09T14:39:46.438Z,100846.31
2022-08-09T14:42:30.976Z,100851.56
2022-08-09T14:46:40.481Z,100846.66
2022-08-09T14:47:57.821Z,100851.16
2022-08-09T14:50:29.532Z,100851.16
2022-08-09T14:53:00.239Z,100853.34
2022-08-09T14:55:32.062Z,100840.22
2022-08-09T14:58:03.563Z,100840.84
2022-08-09T15:00:36.220Z,100841.69
2022-08-09T15:03:08.779Z,100845.56
2022-08-09T15:05:38.350Z,100844.75
2022-08-09T15:08:10.278Z,100845.09
2022-08-09T15:10:39.881Z,100840.88
2022-08-09T15:13:09.001Z,100838.50
2022-08-09T15:15:39.740Z,100825.78
2022-08-09T15:18:14.104Z,100833.69
2022-08-09T15:21:54.684Z,100828.59
2022-08-09T15:24:01.647Z,100825.19
2022-08-09T15:26:31.450Z,100827.81
2022-08-09T15:29:04.829Z,100829.44
2022-08-09T15:31:40.570Z,100834.53
2022-08-09T15:34:32.371Z,100827.72
2022-08-09T15:37:04.252Z,100834.28
2022-08-09T15:39:34.582Z,100832.69
2022-08-09T15:42:03.975Z,100823.69
2022-08-09T15:44:32.429Z,100827.25
2022-08-09T15:47:03.674Z,100835.38
2022-08-09T15:49:33.818Z,100824.00
2022-08-09T15:52:05.813Z,100817.59
2022-08-09T15:54:46.204Z,100811.06
2022-08-09T15:57:19.057Z,100814.31
2022-08-09T16:00:05.155Z,100800.66
2022-08-09T16:02:35.282Z,100802.16
2022-08-09T16:05:04.425Z,100808.41
2022-08-09T16:07:39.477Z,100804.53
2022-08-09T16:10:38.448Z,100807.56
2022-08-09T16:13:03.913Z,100807.78
2022-08-09T16:16:04.486Z,100805.13
2022-08-09T16:18:22.460Z,100798.34
2022-08-09T16:20:51.422Z,100802.53
2022-08-09T16:23:21.661Z,100800.38
2022-08-09T16:25:50.209Z,100810.84
2022-08-09T16:28:18.719Z,100805.72
2022-08-09T16:30:58.936Z,100800.00
2022-08-09T16:33:30.922Z,100807.53
2022-08-09T16:36:11.769Z,100797.94
2022-08-09T16:38:45.979Z,100810.97
2022-08-09T16:41:24.714Z,100809.25
2022-08-09T16:44:09.068Z,100800.88
2022-08-09T16:46:37.559Z,100803.56
2022-08-09T16:50:28.391Z,100799.19
2022-08-09T16:52:13.761Z,100809.56
2022-08-09T16:54:42.324Z,100809.38
2022-08-09T16:57:11.376Z,100812.81
2022-08-09T16:59:44.101Z,100802.13
2022-08-09T17:02:23.120Z,100802.13
2022-08-09T17:04:53.159Z,100807.16
2022-08-09T17:08:44.991Z,100797.06
2022-08-09T17:10:14.640Z,100807.97
2022-08-09T17:12:43.927Z,100808.72
2022-08-09T17:15:30.605Z,100798.38
2022-08-09T17:18:00.643Z,100796.88
2022-08-09T17:20:37.441Z,100803.69
2022-08-09T17:23:10.499Z,100811.66
2022-08-09T17:25:45.088Z,100805.88
2022-08-09T17:28:21.394Z,100807.84
2022-08-09T17:30:51.833Z,100818.53
2022-08-09T17:33:22.737Z,100809.88
2022-08-09T17:35:52.961Z,100816.06
2022-08-09T17:38:30.446Z,100817.06
2022-08-09T17:41:02.772Z,100823.59
2022-08-09T17:43:35.778Z,100821.59
2022-08-09T17:46:09.012Z,100830.97
2022-08-09T17:48:51.595Z,100830.50
2022-08-09T17:51:23.149Z,100828.16
2022-08-09T17:53:55.044Z,100824.78
2022-08-09T17:56:28.485Z,100829.84
2022-08-09T17:59:00.003Z,100833.28
2022-08-09T18:01:40.718Z,100831.00
2022-08-09T18:04:19.576Z,100831.00
2022-08-09T18:06:55.225Z,100837.81
2022-08-09T18:09:35.745Z,100834.53
2022-08-09T18:12:17.304Z,100841.53
2022-08-09T18:14:54.430Z,100840.94
2022-08-09T18:18:03.366Z,100845.25
2022-08-09T18:20:59.880Z,100835.84
2022-08-09T18:23:08.072Z,100840.53
2022-08-09T18:25:57.560Z,100840.97
2022-08-09T18:30:41.261Z,100840.13
2022-08-09T18:31:19.273Z,100849.34
2022-08-09T18:34:01.067Z,100842.09
2022-08-09T18:36:32.510Z,100849.09
2022-08-09T18:39:06.613Z,100844.66
2022-08-09T18:41:36.927Z,100854.25
2022-08-09T18:44:13.335Z,100852.13
2022-08-09T18:46:49.689Z,100855.97
2022-08-09T18:49:43.341Z,100852.88
2022-08-09T18:52:18.850Z,100851.66
2022-08-09T18:54:55.203Z,100857.97
2022-08-09T18:57:38.704Z,100861.78
2022-08-09T19:00:19.173Z,100865.72
2022-08-09T19:02:51.230Z,100866.78
2022-08-09T19:06:01.860Z,100869.16
2022-08-09T19:08:14.155Z,100870.00
2022-08-09T19:10:49.046Z,100876.59
2022-08-09T19:13:22.831Z,100886.38
2022-08-09T19:16:07.208Z,100878.06
2022-08-09T19:18:42.271Z,100886.34
2022-08-09T19:21:12.822Z,100885.03
2022-08-09T19:24:37.881Z,100893.13
2022-08-09T19:26:35.008Z,100898.66
2022-08-09T19:29:09.644Z,100897.81
2022-08-09T19:31:49.409Z,100900.78
2022-08-09T19:34:23.052Z,100901.63
2022-08-09T19:36:53.956Z,100906.22
2022-08-09T19:39:43.726Z,100907.16
2022-08-09T19:42:19.145Z,100908.38
2022-08-09T19:44:51.220Z,100911.16
2022-08-09T19:47:23.213Z,100905.06
2022-08-09T19:50:09.219Z,100900.38
2022-08-09T19:52:49.618Z,100910.44
2022-08-09T19:55:30.454Z,100915.13
2022-08-09T19:58:16.314Z,100914.44
2022-08-09T20:00:46.829Z,100925.28
2022-08-09T20:04:10.798Z,100922.06
2022-08-09T20:06:22.499Z,100919.78
2022-08-09T20:08:56.523Z,100924.53
2022-08-09T20:11:26.832Z,100928.38
2022-08-09T20:13:57.167Z,100928.56
2022-08-09T20:16:33.265Z,100928.94
2022-08-09T20:19:46.364Z,100931.03
2022-08-09T20:21:59.868Z,100933.00
2022-08-09T20:24:33.880Z,100935.94
2022-08-09T20:27:08.000Z,100937.47
2022-08-09T20:29:39.482Z,100939.47
2022-08-09T20:32:29.116Z,100944.50
2022-08-09T20:35:01.527Z,100940.09
2022-08-09T20:38:19.518Z,100942.31
2022-08-09T20:40:27.063Z,100942.75
2022-08-09T20:43:00.039Z,100953.94
2022-08-09T20:46:00.492Z,100948.16
2022-08-09T20:48:31.919Z,100951.19
2022-08-09T20:51:01.308Z,100949.44
2022-08-09T20:53:37.058Z,100953.28
2022-08-09T20:56:21.183Z,100951.78
2022-08-09T20:58:57.950Z,100951.97
2022-08-09T21:01:34.033Z,100956.31
2022-08-09T21:05:56.103Z,100955.81
2022-08-09T21:07:11.834Z,100961.22
2022-08-09T21:09:55.448Z,100967.06
2022-08-09T21:12:32.187Z,100958.50
2022-08-09T21:15:14.935Z,100956.09
2022-08-09T21:18:23.475Z,100959.88
2022-08-09T21:20:35.785Z,100959.56
2022-08-09T21:23:04.723Z,100958.13
2022-08-09T21:25:56.101Z,100959.16
2022-08-09T21:28:34.105Z,100964.22
2022-08-09T21:31:17.857Z,100955.97
2022-08-09T21:33:52.822Z,100958.16
2022-08-09T21:36:28.861Z,100960.13
2022-08-09T21:38:59.554Z,100969.97
2022-08-09T21:42:05.006Z,100963.13
2022-08-09T21:44:34.241Z,100966.31
2022-08-09T21:47:08.983Z,100967.41
2022-08-09T21:49:42.481Z,100971.34
2022-08-09T21:52:17.551Z,100964.66
2022-08-09T21:54:50.860Z,100978.84
2022-08-09T21:57:38.611Z,100975.75
2022-08-09T22:00:25.461Z,100970.78
2022-08-09T22:02:58.383Z,100966.69
2022-08-09T22:05:37.259Z,100966.16
2022-08-09T22:08:13.044Z,100969.88
2022-08-09T22:11:50.563Z,100971.72
2022-08-09T22:13:34.533Z,100965.84
2022-08-09T22:16:07.768Z,100977.34
2022-08-09T22:18:38.005Z,100988.09
2022-08-09T22:21:09.984Z,100987.47
2022-08-09T22:24:01.113Z,100988.91
2022-08-09T22:26:35.464Z,100998.25
2022-08-09T22:29:09.279Z,100987.97
2022-08-09T22:31:50.302Z,100983.75
2022-08-09T22:34:25.971Z,100987.97
2022-08-09T22:36:56.920Z,100983.16
2022-08-09T22:39:56.176Z,100979.88
2022-08-09T22:42:21.244Z,100989.38
2022-08-09T22:48:06.161Z,100982.38
2022-08-09T22:48:15.226Z,100975.75
2022-08-09T22:50:31.542Z,100985.63
2022-08-09T22:53:03.484Z,100983.91
2022-08-09T22:55:39.781Z,100979.03
2022-08-09T22:58:32.438Z,100984.66
2022-08-09T23:01:03.369Z,100987.34
2022-08-09T23:04:05.469Z,100980.56
2022-08-09T23:06:35.816Z,100984.97
2022-08-09T23:09:06.744Z,100988.75
2022-08-09T23:11:35.690Z,100992.41
2022-08-09T23:14:10.002Z,100990.66
2022-08-09T23:16:45.726Z,100986.63
2022-08-09T23:19:14.351Z,100990.28
2022-08-09T23:21:42.831Z,100993.13
2022-08-09T23:24:13.017Z,100988.63
2022-08-09T23:26:41.780Z,100986.44
2022-08-09T23:29:13.932Z,100981.44
2022-08-09T23:31:42.858Z,100990.13
2022-08-09T23:34:11.538Z,100981.63
2022-08-09T23:36:40.103Z,100979.16
2022-08-09T23:39:09.342Z,100987.13
2022-08-09T23:41:39.155Z,100984.72
2022-08-09T23:44:07.594Z,100976.84
2022-08-09T23:46:36.047Z,100976.84
2022-08-09T23:49:05.285Z,100984.13
2022-08-09T23:51:33.818Z,100983.06
2022-08-09T23:54:03.422Z,100982.28
2022-08-09T23:56:52.541Z,100979.94
2022-08-09T23:59:24.639Z,100981.09
